createdAt,value
2022-10-05T00:03:04.036Z,55.00
2022-10-05T00:06:13.203Z,55.00
2022-10-05T00:09:21.829Z,55.00
2022-10-05T00:12:30.479Z,55.10
2022-10-05T00:15:38.506Z,55.00
2022-10-05T00:18:47.945Z,55.00
2022-10-05T00:21:59.736Z,55.00
2022-10-05T00:25:13.189Z,54.90
2022-10-05T00:28:23.936Z,55.00
2022-10-05T00:31:32.879Z,55.00
2022-10-05T00:34:40.845Z,54.90
2022-10-05T00:37:53.644Z,54.90
2022-10-05T00:41:05.346Z,55.00
2022-10-05T00:44:31.904Z,55.00
2022-10-05T00:47:44.895Z,55.00
2022-10-05T00:51:00.699Z,55.00
2022-10-05T00:54:18.680Z,55.00
2022-10-05T00:57:32.626Z,55.00
2022-10-05T01:00:43.640Z,55.00
2022-10-05T01:03:56.734Z,55.00
2022-10-05T01:07:08.262Z,55.00
2022-10-05T01:10:23.093Z,55.00
2022-10-05T01:13:33.988Z,55.10
2022-10-05T01:16:45.655Z,55.10
2022-10-05T01:20:20.808Z,55.10
2022-10-05T01:23:48.973Z,55.10
2022-10-05T01:27:26.689Z,55.10
2022-10-05T01:30:38.842Z,55.10
2022-10-05T01:33:50.102Z,55.00
2022-10-05T01:37:00.573Z,55.10
2022-10-05T01:40:09.399Z,55.10
2022-10-05T01:43:20.173Z,55.10
2022-10-05T01:46:31.838Z,55.30
2022-10-05T01:49:42.609Z,55.10
2022-10-05T01:52:54.334Z,55.00
2022-10-05T01:56:05.729Z,55.10
2022-10-05T01:59:18.948Z,55.00
2022-10-05T02:02:28.327Z,55.00
2022-10-05T02:05:38.860Z,55.00
2022-10-05T02:08:48.777Z,55.00
2022-10-05T02:12:02.256Z,55.00
2022-10-05T02:15:13.802Z,55.00
2022-10-05T02:18:24.400Z,55.00
2022-10-05T02:21:32.318Z,54.90
2022-10-05T02:24:41.717Z,54.90
2022-10-05T02:27:53.034Z,54.90
2022-10-05T02:31:02.957Z,54.80
2022-10-05T02:34:26.248Z,54.80
2022-10-05T02:37:44.641Z,54.70
2022-10-05T02:40:55.780Z,54.80
2022-10-05T02:44:08.513Z,54.70
2022-10-05T02:47:18.482Z,54.70
2022-10-05T02:50:30.529Z,54.70
2022-10-05T02:53:41.895Z,54.60
2022-10-05T02:56:53.725Z,54.60
2022-10-05T03:00:06.008Z,54.60
2022-10-05T03:03:18.963Z,54.60
2022-10-05T03:06:30.032Z,54.60
2022-10-05T03:09:40.733Z,54.60
2022-10-05T03:12:52.659Z,54.50
2022-10-05T03:16:30.192Z,54.50
2022-10-05T03:19:48.510Z,54.50
2022-10-05T03:23:00.437Z,54.50
2022-10-05T03:26:17.481Z,54.50
2022-10-05T03:29:30.513Z,54.50
2022-10-05T03:32:45.572Z,54.50
2022-10-05T03:35:57.348Z,54.50
2022-10-05T03:39:10.746Z,54.50
2022-10-05T03:42:22.214Z,54.60
2022-10-05T03:45:32.287Z,54.60
2022-10-05T03:48:44.455Z,55.20
2022-10-05T03:51:55.060Z,54.60
2022-10-05T03:55:06.656Z,55.20
2022-10-05T03:58:16.244Z,54.70
2022-10-05T04:01:26.698Z,54.60
2022-10-05T04:04:37.895Z,54.70
2022-10-05T04:07:48.199Z,54.80
2022-10-05T04:11:00.541Z,54.80
2022-10-05T04:14:11.319Z,54.80
2022-10-05T04:17:22.620Z,54.70
2022-10-05T04:20:32.124Z,54.70
2022-10-05T04:23:44.030Z,54.70
2022-10-05T04:26:55.456Z,54.70
2022-10-05T04:30:08.124Z,54.80
2022-10-05T04:33:16.945Z,54.90
2022-10-05T04:36:27.783Z,54.90
2022-10-05T04:39:38.026Z,54.90
2022-10-05T04:42:52.161Z,54.90
2022-10-05T04:46:11.624Z,54.90
2022-10-05T04:49:31.473Z,54.80
2022-10-05T04:52:41.262Z,54.80
2022-10-05T04:55:54.830Z,54.90
2022-10-05T04:59:14.769Z,55.00
2022-10-05T05:02:25.863Z,54.90
2022-10-05T05:05:53.097Z,54.90
2022-10-05T05:09:27.928Z,54.90
2022-10-05T05:12:41.009Z,54.90
2022-10-05T05:15:53.089Z,54.90
2022-10-05T05:19:32.732Z,54.90
2022-10-05T05:22:44.205Z,55.00
2022-10-05T05:25:56.005Z,55.00
2022-10-05T05:29:07.776Z,55.00
2022-10-05T05:32:21.749Z,55.00
2022-10-05T05:36:01.644Z,55.00
2022-10-05T05:39:18.628Z,55.00
2022-10-05T05:42:32.676Z,55.00
2022-10-05T05:45:42.462Z,55.60
2022-10-05T05:48:53.998Z,55.70
2022-10-05T05:52:04.946Z,55.20
2022-10-05T05:55:16.320Z,55.50
2022-10-05T05:58:26.270Z,57.50
2022-10-05T06:01:39.545Z,56.60
2022-10-05T06:04:55.538Z,56.80
2022-10-05T06:08:07.157Z,57.20
2022-10-05T06:11:17.298Z,56.30
2022-10-05T06:14:28.305Z,56.90
2022-10-05T06:17:38.502Z,56.60
2022-10-05T06:20:54.396Z,56.90
2022-10-05T06:24:04.738Z,57.00
2022-10-05T06:27:25.984Z,57.20
2022-10-05T06:30:44.394Z,57.00
2022-10-05T06:33:52.948Z,57.00
2022-10-05T06:37:12.016Z,56.90
2022-10-05T06:40:26.353Z,57.00
2022-10-05T06:43:51.150Z,57.00
2022-10-05T06:47:18.681Z,57.00
2022-10-05T06:50:47.250Z,57.00
2022-10-05T06:54:42.603Z,57.10
2022-10-05T06:58:00.961Z,57.10
2022-10-05T07:01:11.282Z,57.00
2022-10-05T07:04:26.258Z,57.00
2022-10-05T07:07:38.601Z,56.90
2022-10-05T07:10:57.730Z,56.80
2022-10-05T07:14:15.190Z,56.70
2022-10-05T07:17:29.149Z,56.70
2022-10-05T07:20:49.246Z,56.50
2022-10-05T07:24:02.594Z,56.50
2022-10-05T07:27:15.543Z,56.40
2022-10-05T07:30:23.311Z,56.40
2022-10-05T07:33:34.781Z,56.40
2022-10-05T07:37:03.033Z,56.30
2022-10-05T07:40:13.406Z,56.30
2022-10-05T07:43:40.300Z,56.30
2022-10-05T07:46:59.429Z,56.20
2022-10-05T07:50:13.978Z,56.30
2022-10-05T07:53:24.799Z,56.10
2022-10-05T07:56:35.161Z,56.10
2022-10-05T07:59:46.547Z,56.20
2022-10-05T08:02:56.898Z,56.10
2022-10-05T08:06:05.575Z,56.10
2022-10-05T08:09:37.217Z,56.00
2022-10-05T08:12:53.597Z,56.10
2022-10-05T08:16:04.142Z,56.00
2022-10-05T08:19:15.758Z,56.00
2022-10-05T08:22:25.759Z,56.00
2022-10-05T08:25:39.973Z,56.00
2022-10-05T08:28:52.295Z,55.90
2022-10-05T08:32:02.638Z,55.90
2022-10-05T08:35:18.857Z,55.80
2022-10-05T08:38:30.112Z,55.80
2022-10-05T08:41:59.296Z,55.80
2022-10-05T08:45:56.110Z,55.80
2022-10-05T08:49:21.922Z,55.90
2022-10-05T08:52:30.254Z,55.90
2022-10-05T08:55:42.257Z,55.90
2022-10-05T08:58:58.483Z,55.90
2022-10-05T09:02:17.497Z,55.90
2022-10-05T09:05:47.416Z,55.90
2022-10-05T09:09:26.636Z,55.90
2022-10-05T09:13:07.304Z,55.90
2022-10-05T09:16:36.169Z,55.80
2022-10-05T09:19:52.982Z,55.90
2022-10-05T09:23:07.034Z,55.90
2022-10-05T09:26:42.481Z,55.90
2022-10-05T09:30:16.821Z,55.90
2022-10-05T09:33:58.677Z,55.80
2022-10-05T09:37:20.091Z,55.90
2022-10-05T09:40:47.837Z,55.80
2022-10-05T09:44:21.977Z,55.80
2022-10-05T09:48:06.146Z,55.80
2022-10-05T09:52:02.405Z,55.90
2022-10-05T09:55:34.361Z,55.90
2022-10-05T09:59:06.436Z,55.90
2022-10-05T10:02:31.770Z,55.90
2022-10-05T10:06:13.762Z,55.90
2022-10-05T10:09:27.856Z,55.90
2022-10-05T10:12:38.171Z,55.90
2022-10-05T10:16:10.450Z,55.80
2022-10-05T10:19:27.190Z,55.80
2022-10-05T10:22:54.247Z,56.00
2022-10-05T10:26:14.651Z,55.90
2022-10-05T10:29:46.869Z,55.90
2022-10-05T10:33:36.852Z,56.50
2022-10-05T10:36:57.840Z,55.80
2022-10-05T10:40:27.037Z,55.80
2022-10-05T11:17:02.149Z,55.80
2022-10-05T11:20:50.242Z,56.00
2022-10-05T11:24:42.763Z,55.80
2022-10-05T11:28:14.822Z,55.80
2022-10-05T11:31:38.999Z,55.90
2022-10-05T11:35:13.451Z,56.10
2022-10-05T11:39:04.482Z,55.90
2022-10-05T11:42:39.649Z,55.90
2022-10-05T11:46:01.767Z,55.90
2022-10-05T11:49:34.891Z,55.90
2022-10-05T11:52:45.958Z,55.80
2022-10-05T11:56:00.557Z,55.80
2022-10-05T11:59:13.176Z,55.90
2022-10-05T12:02:28.830Z,55.80
2022-10-05T12:05:39.457Z,55.90
2022-10-05T12:08:55.836Z,55.80
2022-10-05T12:12:08.196Z,55.90
2022-10-05T12:15:19.938Z,55.80
2022-10-05T12:18:45.245Z,55.80
2022-10-05T12:21:55.525Z,55.90
2022-10-05T12:25:19.123Z,55.90
2022-10-05T12:28:31.315Z,55.90
2022-10-05T12:31:44.323Z,55.90
2022-10-05T12:35:01.504Z,55.90
2022-10-05T12:38:12.745Z,55.80
2022-10-05T12:41:23.516Z,55.90
2022-10-05T12:44:48.610Z,56.00
2022-10-05T12:48:06.809Z,56.00
2022-10-05T12:51:17.498Z,56.00
2022-10-05T12:54:30.234Z,55.90
2022-10-05T12:57:40.932Z,56.00
2022-10-05T13:00:51.728Z,56.00
2022-10-05T13:04:06.966Z,56.00
2022-10-05T13:07:43.166Z,56.00
2022-10-05T13:10:53.915Z,56.10
2022-10-05T13:14:09.273Z,56.10
2022-10-05T13:17:19.345Z,56.10
2022-10-05T13:20:30.629Z,56.00
2022-10-05T13:23:44.795Z,56.10
2022-10-05T13:26:54.164Z,56.10
2022-10-05T13:30:04.914Z,56.20
2022-10-05T13:33:17.948Z,56.30
2022-10-05T13:36:31.330Z,56.70
2022-10-05T13:39:52.413Z,56.70
2022-10-05T13:43:03.959Z,56.40
2022-10-05T13:46:18.092Z,56.50
2022-10-05T13:49:28.893Z,56.40
2022-10-05T13:52:43.197Z,56.40
2022-10-05T13:55:54.871Z,56.30
2022-10-05T13:59:07.651Z,56.40
2022-10-05T14:02:21.266Z,56.40
2022-10-05T14:05:30.218Z,56.30
2022-10-05T14:08:48.086Z,56.30
2022-10-05T14:12:21.354Z,56.30
2022-10-05T14:15:30.738Z,56.20
2022-10-05T14:18:40.205Z,56.20
2022-10-05T14:21:50.775Z,56.10
2022-10-05T14:25:17.023Z,56.10
2022-10-05T14:28:28.290Z,56.10
2022-10-05T14:31:37.136Z,56.10
2022-10-05T14:34:46.854Z,56.10
2022-10-05T14:38:00.198Z,56.10
2022-10-05T14:41:17.535Z,56.00
2022-10-05T14:47:46.990Z,56.00
2022-10-05T14:50:57.758Z,56.10
2022-10-05T14:54:25.133Z,56.10
2022-10-05T14:57:38.142Z,56.00
2022-10-05T15:00:50.329Z,56.10
2022-10-05T15:04:07.863Z,56.00
2022-10-05T15:07:23.185Z,56.00
2022-10-05T15:10:34.413Z,56.00
2022-10-05T15:13:43.616Z,56.00
2022-10-05T15:16:52.950Z,56.00
2022-10-05T15:20:03.594Z,56.00
2022-10-05T15:23:24.803Z,56.00
2022-10-05T15:26:41.369Z,56.10
2022-10-05T15:29:59.579Z,56.00
2022-10-05T15:33:15.573Z,56.10
2022-10-05T15:36:23.979Z,56.00
2022-10-05T15:39:36.505Z,56.10
2022-10-05T15:42:45.247Z,56.00
2022-10-05T15:45:58.158Z,56.00
2022-10-05T15:49:28.716Z,56.00
2022-10-05T15:52:38.853Z,56.00
2022-10-05T15:55:50.933Z,56.00
2022-10-05T15:58:59.567Z,56.00
2022-10-05T16:02:17.441Z,56.00
2022-10-05T16:06:02.418Z,56.00
2022-10-05T16:09:17.143Z,56.10
2022-10-05T16:12:36.545Z,56.60
2022-10-05T16:15:48.622Z,56.00
2022-10-05T16:19:01.011Z,56.10
2022-10-05T16:22:14.934Z,56.00
2022-10-05T16:25:24.598Z,56.00
2022-10-05T16:28:40.354Z,55.90
2022-10-05T16:31:56.900Z,55.90
2022-10-05T16:35:11.643Z,55.90
2022-10-05T16:38:24.905Z,55.90
2022-10-05T16:41:35.518Z,55.90
2022-10-05T16:44:47.989Z,55.90
2022-10-05T16:48:01.357Z,55.90
2022-10-05T16:51:20.933Z,55.90
2022-10-05T16:54:31.519Z,55.90
2022-10-05T16:57:40.766Z,55.80
2022-10-05T17:01:05.693Z,55.80
2022-10-05T17:04:23.869Z,55.90
2022-10-05T17:07:45.377Z,55.80
2022-10-05T17:11:01.530Z,55.80
2022-10-05T17:14:17.772Z,55.90
2022-10-05T17:17:44.838Z,55.80
2022-10-05T17:20:55.861Z,55.80
2022-10-05T17:24:14.399Z,55.70
2022-10-05T17:27:26.782Z,55.80
2022-10-05T17:31:06.871Z,55.80
2022-10-05T17:34:27.361Z,55.80
2022-10-05T17:37:36.558Z,55.70
2022-10-05T17:41:05.454Z,55.80
2022-10-05T17:44:21.402Z,55.70
2022-10-05T17:47:56.766Z,55.70
2022-10-05T17:51:32.140Z,55.90
2022-10-05T17:55:19.304Z,55.80
2022-10-05T17:59:00.695Z,55.70
2022-10-05T18:02:16.319Z,55.70
2022-10-05T18:05:27.629Z,55.70
2022-10-05T18:08:40.223Z,55.70
2022-10-05T18:12:02.794Z,55.60
2022-10-05T18:15:46.030Z,55.70
2022-10-05T18:18:57.432Z,55.50
2022-10-05T18:22:10.874Z,55.50
2022-10-05T18:25:27.032Z,55.50
2022-10-05T18:28:48.111Z,55.50
2022-10-05T18:32:01.148Z,55.40
2022-10-05T18:35:11.369Z,55.40
2022-10-05T18:38:33.886Z,55.90
2022-10-05T18:41:50.246Z,55.40
2022-10-05T18:44:59.304Z,55.20
2022-10-05T18:48:15.001Z,55.20
2022-10-05T18:51:26.185Z,55.30
2022-10-05T18:54:44.226Z,55.20
2022-10-05T18:58:01.415Z,55.20
2022-10-05T19:01:33.204Z,55.20
2022-10-05T19:04:48.523Z,55.20
2022-10-05T19:08:00.190Z,55.20
2022-10-05T19:11:14.161Z,55.10
2022-10-05T19:14:28.037Z,55.10
2022-10-05T19:18:04.807Z,55.10
2022-10-05T19:21:20.642Z,55.10
2022-10-05T19:24:37.480Z,55.10
2022-10-05T19:27:51.937Z,55.10
2022-10-05T19:31:13.533Z,55.10
2022-10-05T19:34:29.349Z,55.20
2022-10-05T19:37:42.310Z,55.80
2022-10-05T19:40:52.804Z,55.20
2022-10-05T19:44:15.950Z,55.10
2022-10-05T19:47:30.623Z,55.20
2022-10-05T19:50:39.758Z,55.30
2022-10-05T19:53:50.040Z,55.30
2022-10-05T19:56:59.750Z,55.30
2022-10-05T20:00:16.323Z,55.30
2022-10-05T20:03:27.569Z,55.30
2022-10-05T20:06:35.582Z,55.30
2022-10-05T20:09:51.349Z,55.30
2022-10-05T20:13:00.161Z,55.30
2022-10-05T20:16:27.088Z,55.40
2022-10-05T20:19:56.997Z,55.30
2022-10-05T20:23:24.204Z,55.40
2022-10-05T20:26:57.300Z,55.40
2022-10-05T20:30:05.741Z,55.60
2022-10-05T20:33:14.668Z,55.40
2022-10-05T20:36:23.975Z,55.40
2022-10-05T20:39:32.222Z,55.40
2022-10-05T20:42:40.439Z,55.50
2022-10-05T20:45:48.518Z,55.50
2022-10-05T20:48:56.599Z,55.50
2022-10-05T20:52:06.398Z,55.40
2022-10-05T20:55:14.145Z,55.50
2022-10-05T20:58:23.791Z,55.50
2022-10-05T21:01:31.883Z,55.50
2022-10-05T21:04:41.606Z,55.60
2022-10-05T21:07:51.387Z,55.60
2022-10-05T21:10:59.573Z,55.50
2022-10-05T21:14:07.672Z,55.70
2022-10-05T21:17:15.801Z,55.70
2022-10-05T21:20:23.796Z,55.60
2022-10-05T21:23:33.666Z,55.60
2022-10-05T21:26:41.697Z,55.70
2022-10-05T21:29:49.845Z,55.70
2022-10-05T21:32:58.034Z,55.70
2022-10-05T21:36:06.214Z,55.80
2022-10-05T21:39:15.263Z,55.70
2022-10-05T21:42:23.686Z,55.70
2022-10-05T21:45:31.610Z,55.90
2022-10-05T21:48:40.065Z,55.90
2022-10-05T21:51:48.188Z,55.80
2022-10-05T21:54:57.604Z,55.90
2022-10-05T21:58:05.593Z,55.90
2022-10-05T22:01:13.477Z,55.90
2022-10-05T22:04:21.422Z,56.00
2022-10-05T22:07:29.480Z,56.00
2022-10-05T22:10:38.757Z,56.00
2022-10-05T22:13:47.714Z,55.90
2022-10-05T22:16:55.942Z,56.00
2022-10-05T22:20:04.297Z,55.90
2022-10-05T22:23:12.321Z,55.90
2022-10-05T22:26:22.550Z,56.00
2022-10-05T22:29:30.392Z,56.00
2022-10-05T22:32:38.374Z,56.00
2022-10-05T22:35:46.399Z,56.00
2022-10-05T22:38:54.474Z,56.00
2022-10-05T22:42:05.726Z,56.00
2022-10-05T22:45:14.222Z,56.00
2022-10-05T22:48:22.415Z,55.90
2022-10-05T22:51:30.521Z,55.90
2022-10-05T22:54:38.733Z,56.00
2022-10-05T22:57:49.154Z,56.00
2022-10-05T23:01:01.773Z,56.00
2022-10-05T23:04:09.564Z,56.00
2022-10-05T23:07:17.277Z,56.00
2022-10-05T23:10:26.076Z,56.00
2022-10-05T23:13:35.113Z,56.00
2022-10-05T23:16:43.300Z,56.00
2022-10-05T23:19:51.089Z,56.00
2022-10-05T23:23:00.311Z,56.00
2022-10-05T23:26:09.204Z,56.00
2022-10-05T23:29:18.601Z,56.00
2022-10-05T23:32:26.590Z,56.00
2022-10-05T23:35:34.715Z,56.10
2022-10-05T23:38:42.777Z,56.10
2022-10-05T23:41:50.675Z,56.10
2022-10-05T23:45:00.266Z,56.10
2022-10-05T23:48:08.331Z,56.10
2022-10-05T23:51:16.379Z,56.10
2022-10-05T23:54:24.362Z,56.10
2022-10-05T23:57:32.514Z,56.20
